KRT weather

Khartoum International Airport
Khartoum, Khartoum State, Sudan

Public forecast

Using degrees Celsius for public forecast. Weather courtesy of forecast.io.

Current aviation weather report (METAR) for Khartoum International Airport

Retrieved 2019/10/18 07:30 UTC (0 seconds ago):

HSSS 180730Z 15018G28KT 1000M BLDU 29/22 Q1013 TEMPO 2000M BLDU

Aviation forecast (TAF) for Khartoum International Airport

Retrieved 2019/10/18 06:59 UTC (15 minutes ago):

TAF HSSS 180500Z 1806/1912 18008G18KT 6000 SCT140 TEMPO 1806/1809 VRB03KT 0500 HZ PROB30 1809/1812 1500 HZ